createdAt,value
2022-12-09T00:02:00.250Z,23.55
2022-12-09T00:04:26.955Z,23.15
2022-12-09T00:06:53.540Z,22.10
2022-12-09T00:09:19.928Z,23.38
2022-12-09T00:11:46.411Z,23.20
2022-12-09T00:14:13.025Z,23.63
2022-12-09T00:16:40.013Z,22.23
2022-12-09T00:19:07.418Z,21.63
2022-12-09T00:21:34.686Z,22.77
2022-12-09T00:24:06.371Z,21.00
2022-12-09T00:26:34.072Z,23.77
2022-12-09T00:29:01.262Z,22.45
2022-12-09T00:31:32.401Z,21.90
2022-12-09T00:34:05.005Z,21.40
2022-12-09T00:36:31.938Z,22.80
2022-12-09T00:38:59.178Z,21.75
2022-12-09T00:41:26.975Z,23.60
2022-12-09T00:43:54.295Z,20.30
2022-12-09T00:46:20.771Z,20.35
2022-12-09T00:48:47.587Z,23.33
2022-12-09T00:51:17.538Z,23.45
2022-12-09T00:53:44.910Z,23.38
2022-12-09T00:56:11.520Z,22.15
2022-12-09T00:58:37.906Z,23.17
2022-12-09T01:01:04.888Z,22.02
2022-12-09T01:03:31.467Z,21.67
2022-12-09T01:05:58.377Z,22.25
2022-12-09T01:08:25.100Z,23.40
2022-12-09T01:10:51.648Z,23.77
2022-12-09T01:13:18.061Z,24.55
2022-12-09T01:15:44.765Z,23.80
2022-12-09T01:18:13.707Z,23.17
2022-12-09T01:20:40.429Z,22.73
2022-12-09T01:23:07.097Z,22.65
2022-12-09T01:25:34.136Z,22.30
2022-12-09T01:28:00.977Z,22.25
2022-12-09T01:30:27.733Z,21.85
2022-12-09T01:32:54.110Z,22.33
2022-12-09T01:35:20.684Z,22.35
2022-12-09T01:37:47.461Z,23.48
2022-12-09T01:40:16.872Z,22.95
2022-12-09T01:42:43.530Z,22.02
2022-12-09T01:45:22.237Z,23.95
2022-12-09T01:47:54.271Z,23.65
2022-12-09T01:50:20.966Z,22.55
2022-12-09T01:52:49.265Z,22.63
2022-12-09T01:55:16.819Z,21.40
2022-12-09T01:57:45.098Z,22.98
2022-12-09T02:00:14.067Z,24.63
2022-12-09T02:02:43.706Z,21.05
2022-12-09T02:05:11.678Z,22.98
2022-12-09T02:07:38.485Z,21.90
2022-12-09T02:10:14.390Z,22.63
2022-12-09T02:12:53.017Z,22.92
2022-12-09T02:15:24.437Z,23.05
2022-12-09T02:17:55.321Z,21.30
2022-12-09T02:20:31.157Z,21.15
2022-12-09T02:23:36.123Z,21.63
2022-12-09T02:26:27.410Z,21.90
2022-12-09T02:29:11.976Z,23.10
2022-12-09T02:32:11.575Z,22.17
2022-12-09T02:34:45.682Z,21.65
2022-12-09T02:37:31.302Z,22.05
2022-12-09T02:40:03.861Z,20.42
2022-12-09T02:42:34.953Z,24.23
2022-12-09T02:45:03.962Z,22.83
2022-12-09T02:47:33.322Z,23.10
2022-12-09T02:50:05.974Z,24.40
2022-12-09T02:52:35.631Z,21.60
2022-12-09T02:55:07.175Z,22.95
2022-12-09T02:57:36.029Z,23.80
2022-12-09T03:00:06.473Z,22.48
2022-12-09T03:02:36.919Z,23.38
2022-12-09T03:05:16.828Z,24.23
2022-12-09T03:07:56.070Z,25.35
2022-12-09T03:10:28.951Z,24.17
2022-12-09T03:13:04.477Z,24.38
2022-12-09T03:15:35.440Z,25.33
2022-12-09T03:18:07.176Z,24.30
2022-12-09T03:20:38.155Z,23.30
2022-12-09T03:23:06.472Z,23.90
2022-12-09T03:25:38.407Z,24.70
2022-12-09T03:28:14.520Z,24.77
2022-12-09T03:30:45.407Z,24.60
2022-12-09T03:33:15.346Z,24.17
2022-12-09T03:35:46.301Z,24.02
2022-12-09T03:38:18.467Z,24.52
2022-12-09T03:40:50.216Z,26.27
2022-12-09T03:43:24.484Z,26.40
2022-12-09T03:45:54.686Z,24.15
2022-12-09T03:48:22.836Z,26.58
2022-12-09T03:51:00.522Z,26.55
2022-12-09T03:53:40.833Z,25.85
2022-12-09T03:56:18.747Z,25.25
2022-12-09T03:58:47.549Z,25.90
2022-12-09T04:01:15.271Z,25.42
2022-12-09T04:03:45.099Z,26.27
2022-12-09T04:06:11.597Z,26.33
2022-12-09T04:08:38.134Z,27.75
2022-12-09T04:11:04.711Z,27.10
2022-12-09T04:13:31.212Z,27.00
2022-12-09T04:15:57.633Z,26.42
2022-12-09T04:18:24.551Z,26.70
2022-12-09T04:20:51.147Z,26.15
2022-12-09T04:23:17.615Z,25.77
2022-12-09T04:25:43.970Z,25.88
2022-12-09T04:28:10.342Z,25.77
2022-12-09T04:30:36.854Z,25.25
2022-12-09T04:33:03.306Z,25.88
2022-12-09T04:35:29.890Z,25.48
2022-12-09T04:37:56.590Z,26.60
2022-12-09T04:40:24.070Z,27.45
2022-12-09T04:42:50.748Z,27.17
2022-12-09T04:45:17.264Z,26.33
2022-12-09T04:47:44.004Z,26.67
2022-12-09T04:50:11.513Z,27.02
2022-12-09T04:52:38.172Z,27.38
2022-12-09T04:55:05.189Z,26.75
2022-12-09T04:57:31.646Z,27.60
2022-12-09T04:59:58.043Z,27.60
2022-12-09T05:02:24.643Z,27.40
2022-12-09T05:04:51.516Z,30.33
2022-12-09T05:07:18.090Z,29.17
2022-12-09T05:09:45.176Z,30.25
2022-12-09T05:12:12.015Z,31.00
2022-12-09T05:14:38.452Z,31.13
2022-12-09T05:17:06.783Z,29.73
2022-12-09T05:19:33.898Z,29.63
2022-12-09T05:22:00.562Z,29.15
2022-12-09T05:24:27.245Z,28.92
2022-12-09T05:26:53.719Z,27.40
2022-12-09T05:29:23.087Z,29.38
2022-12-09T05:31:51.563Z,28.85
2022-12-09T05:34:18.367Z,30.45
2022-12-09T05:36:45.000Z,31.77
2022-12-09T05:39:11.623Z,29.92
2022-12-09T05:41:38.389Z,29.30
2022-12-09T05:44:05.146Z,30.00
2022-12-09T05:46:32.174Z,29.83
2022-12-09T05:48:58.779Z,27.35
2022-12-09T05:51:28.602Z,30.77
2022-12-09T05:53:56.709Z,28.35
2022-12-09T05:56:24.601Z,26.38
2022-12-09T05:58:52.397Z,28.40
2022-12-09T06:01:20.068Z,28.40
2022-12-09T06:03:48.280Z,28.17
2022-12-09T06:06:17.025Z,29.88
2022-12-09T06:08:45.176Z,28.48
2022-12-09T06:11:14.730Z,28.27
2022-12-09T06:13:41.521Z,25.33
2022-12-09T06:16:09.155Z,27.42
2022-12-09T06:18:36.922Z,27.80
2022-12-09T06:21:11.531Z,27.02
2022-12-09T06:23:41.437Z,28.83
2022-12-09T06:26:14.848Z,29.92
2022-12-09T06:28:41.637Z,28.17
2022-12-09T06:31:08.103Z,29.38
2022-12-09T06:33:54.204Z,28.40
2022-12-09T06:36:22.009Z,28.63
2022-12-09T06:38:48.473Z,29.38
2022-12-09T06:41:15.626Z,27.80
2022-12-09T06:43:42.599Z,27.48
2022-12-09T06:46:17.144Z,27.15
2022-12-09T06:48:44.638Z,29.55
2022-12-09T06:51:11.982Z,29.50
2022-12-09T06:53:38.564Z,29.27
2022-12-09T06:56:11.694Z,29.25
2022-12-09T06:58:39.788Z,30.88
2022-12-09T07:01:07.014Z,30.65
2022-12-09T07:03:34.012Z,29.00
2022-12-09T07:06:03.583Z,29.13
2022-12-09T07:08:30.227Z,30.30
2022-12-09T07:10:57.383Z,30.40
2022-12-09T07:13:25.370Z,28.65
2022-12-09T07:15:52.279Z,30.17
2022-12-09T07:18:19.213Z,28.75
2022-12-09T07:20:45.767Z,30.23
2022-12-09T07:23:13.748Z,28.70
2022-12-09T07:25:40.222Z,29.98
2022-12-09T07:28:06.753Z,29.38
2022-12-09T07:30:33.301Z,27.88
2022-12-09T07:32:59.969Z,29.58
2022-12-09T07:35:26.863Z,28.85
2022-12-09T07:37:55.288Z,29.00
2022-12-09T07:40:22.115Z,29.27
2022-12-09T07:42:48.904Z,29.80
2022-12-09T07:45:15.811Z,29.17
2022-12-09T07:47:42.504Z,28.10
2022-12-09T07:50:09.857Z,29.83
2022-12-09T07:52:36.467Z,28.42
2022-12-09T07:55:03.106Z,29.40
2022-12-09T07:57:34.132Z,29.80
2022-12-09T08:00:00.855Z,29.77
2022-12-09T08:02:27.622Z,28.40
2022-12-09T08:04:54.409Z,27.77
2022-12-09T08:07:21.078Z,28.10
2022-12-09T08:09:48.070Z,27.88
2022-12-09T08:12:14.610Z,29.05
2022-12-09T08:14:41.600Z,29.25
2022-12-09T08:17:08.122Z,26.42
2022-12-09T08:19:34.755Z,28.15
2022-12-09T08:22:01.635Z,27.63
2022-12-09T08:24:28.172Z,28.00
2022-12-09T08:26:55.011Z,29.67
2022-12-09T08:29:21.711Z,27.83
2022-12-09T08:31:49.073Z,28.70
2022-12-09T08:34:16.122Z,27.50
2022-12-09T08:36:43.341Z,29.30
2022-12-09T08:39:11.665Z,27.10
2022-12-09T08:41:39.865Z,28.45
2022-12-09T08:44:15.553Z,27.92
2022-12-09T08:46:45.504Z,26.85
2022-12-09T08:49:13.491Z,27.48
2022-12-09T08:51:40.515Z,26.48
2022-12-09T08:54:07.135Z,27.02
2022-12-09T08:56:34.377Z,28.33
2022-12-09T08:59:01.339Z,26.67
2022-12-09T09:01:32.961Z,27.02
2022-12-09T09:04:09.328Z,27.23
2022-12-09T09:06:38.599Z,28.73
2022-12-09T09:09:07.263Z,30.83
2022-12-09T09:11:34.864Z,31.63
2022-12-09T09:14:04.936Z,29.17
2022-12-09T09:16:32.120Z,29.48
2022-12-09T09:18:59.257Z,28.48
2022-12-09T09:21:26.965Z,28.08
2022-12-09T09:23:53.498Z,28.15
2022-12-09T09:26:24.634Z,26.52
2022-12-09T09:28:51.850Z,29.25
2022-12-09T09:31:21.606Z,25.98
2022-12-09T09:33:49.866Z,27.45
2022-12-09T09:36:20.762Z,29.27
2022-12-09T09:38:49.257Z,26.80
2022-12-09T09:41:36.313Z,28.38
2022-12-09T09:44:03.022Z,28.23
2022-12-09T09:46:44.128Z,27.55
2022-12-09T09:49:18.904Z,27.65
2022-12-09T09:51:46.815Z,27.07
2022-12-09T09:54:15.359Z,27.08
2022-12-09T09:56:56.598Z,28.05
2022-12-09T09:59:32.830Z,27.48
2022-12-09T10:02:09.646Z,27.40
2022-12-09T10:04:42.451Z,26.42
2022-12-09T10:07:19.988Z,28.58
2022-12-09T10:10:02.148Z,28.17
2022-12-09T10:13:11.041Z,29.80
2022-12-09T10:15:53.871Z,27.75
2022-12-09T10:18:27.887Z,26.08
2022-12-09T10:20:54.970Z,28.73
2022-12-09T10:23:23.428Z,29.13
2022-12-09T10:25:57.390Z,30.75
2022-12-09T10:28:29.928Z,29.98
2022-12-09T10:30:59.888Z,29.77
2022-12-09T10:33:34.348Z,30.23
2022-12-09T10:36:02.143Z,30.80
2022-12-09T10:38:30.463Z,30.85
2022-12-09T10:41:53.247Z,31.70
2022-12-09T10:44:22.500Z,28.98
2022-12-09T10:46:57.398Z,29.90
2022-12-09T10:49:25.378Z,29.73
2022-12-09T10:51:54.079Z,30.17
2022-12-09T10:54:40.282Z,30.08
2022-12-09T10:57:12.927Z,29.55
2022-12-09T10:59:42.476Z,31.33
2022-12-09T11:02:09.335Z,31.00
2022-12-09T11:04:42.772Z,30.85
2022-12-09T11:07:12.309Z,31.85
2022-12-09T11:09:42.799Z,32.17
2022-12-09T11:12:18.777Z,32.33
2022-12-09T11:14:52.714Z,34.42
2022-12-09T11:17:23.343Z,33.13
2022-12-09T11:19:53.286Z,32.10
2022-12-09T11:22:36.449Z,33.33
2022-12-09T11:25:27.236Z,34.08
2022-12-09T11:27:56.230Z,33.35
2022-12-09T11:31:19.865Z,33.28
2022-12-09T11:33:47.605Z,30.75
2022-12-09T11:36:26.491Z,32.58
2022-12-09T11:39:27.821Z,30.65
2022-12-09T11:42:18.971Z,28.63
2022-12-09T11:45:06.576Z,28.38
2022-12-09T11:50:25.073Z,29.52
2022-12-09T11:53:12.776Z,29.95
2022-12-09T11:55:49.834Z,28.45
2022-12-09T11:58:21.135Z,28.15
2022-12-09T12:01:26.616Z,28.58
2022-12-09T12:04:03.678Z,28.38
2022-12-09T12:06:43.515Z,29.05
2022-12-09T12:09:21.010Z,28.83
2022-12-09T12:12:02.650Z,29.95
2022-12-09T12:14:30.438Z,28.08
2022-12-09T12:17:16.655Z,28.63
2022-12-09T12:22:30.280Z,26.33
2022-12-09T12:25:33.499Z,28.33
2022-12-09T12:28:32.565Z,27.05
2022-12-09T12:31:01.522Z,26.08
2022-12-09T12:34:07.965Z,27.10
2022-12-09T12:36:42.716Z,25.50
2022-12-09T12:39:37.254Z,26.45
2022-12-09T12:42:23.268Z,26.00
2022-12-09T12:45:21.950Z,26.30
2022-12-09T12:47:48.203Z,25.48
2022-12-09T12:50:22.920Z,27.73
2022-12-09T12:52:56.724Z,26.35
2022-12-09T12:55:46.600Z,24.77
2022-12-09T12:58:39.056Z,25.58
2022-12-09T13:01:24.243Z,25.13
2022-12-09T13:04:00.599Z,25.15
2022-12-09T13:06:40.820Z,23.67
2022-12-09T13:09:47.748Z,24.40
2022-12-09T13:12:19.474Z,23.98
2022-12-09T13:14:53.634Z,24.65
2022-12-09T13:17:25.316Z,24.08
2022-12-09T13:19:56.326Z,24.23
2022-12-09T13:22:42.149Z,22.80
2022-12-09T13:25:42.546Z,25.10
2022-12-09T13:28:18.043Z,23.17
2022-12-09T13:30:54.403Z,23.90
2022-12-09T13:33:41.125Z,23.40
2022-12-09T13:36:20.990Z,24.83
2022-12-09T13:38:47.974Z,25.02
2022-12-09T13:41:26.631Z,25.90
2022-12-09T13:44:17.834Z,25.65
2022-12-09T13:46:44.978Z,25.95
2022-12-09T13:49:20.881Z,24.95
2022-12-09T13:51:51.554Z,25.48
2022-12-09T13:54:27.873Z,26.70
2022-12-09T13:57:22.195Z,27.88
2022-12-09T13:59:52.369Z,24.23
2022-12-09T14:02:37.272Z,26.55
2022-12-09T14:05:12.110Z,25.55
2022-12-09T14:07:46.110Z,26.03
2022-12-09T14:10:34.982Z,24.58
2022-12-09T14:13:17.750Z,26.83
2022-12-09T14:15:45.152Z,25.08
2022-12-09T14:18:33.006Z,25.52
2022-12-09T14:21:17.484Z,24.63
2022-12-09T14:24:09.054Z,25.88
2022-12-09T14:26:36.740Z,25.17
2022-12-09T14:29:04.173Z,26.92
2022-12-09T14:31:44.507Z,26.63
2022-12-09T14:34:23.620Z,26.38
2022-12-09T14:37:01.090Z,27.08
2022-12-09T14:39:35.183Z,24.77
2022-12-09T14:42:08.408Z,26.17
2022-12-09T14:44:50.235Z,25.75
2022-12-09T14:47:22.670Z,26.20
2022-12-09T14:49:50.684Z,25.10
2022-12-09T14:52:25.131Z,26.00
2022-12-09T14:54:54.082Z,25.60
2022-12-09T14:57:24.430Z,26.83
2022-12-09T14:59:54.103Z,25.77
2022-12-09T15:02:23.855Z,25.40
2022-12-09T15:04:52.333Z,27.08
2022-12-09T15:07:27.207Z,25.75
2022-12-09T15:10:04.094Z,24.70
2022-12-09T15:12:34.963Z,26.55
2022-12-09T15:15:07.246Z,25.50
2022-12-09T15:17:50.396Z,26.13
2022-12-09T15:20:47.876Z,25.23
2022-12-09T15:23:20.495Z,24.85
2022-12-09T15:25:50.318Z,25.38
2022-12-09T15:28:25.951Z,26.15
2022-12-09T15:30:58.838Z,25.20
2022-12-09T15:33:26.338Z,24.75
2022-12-09T15:35:57.978Z,25.98
2022-12-09T15:38:41.038Z,25.10
2022-12-09T15:41:33.626Z,26.95
2022-12-09T15:44:06.359Z,22.67
2022-12-09T15:46:36.280Z,22.73
2022-12-09T15:49:04.239Z,23.63
2022-12-09T15:51:31.498Z,20.40
2022-12-09T15:54:01.362Z,21.58
2022-12-09T15:56:40.556Z,21.08
2022-12-09T15:59:13.580Z,21.60
2022-12-09T16:01:42.053Z,23.45
2022-12-09T16:04:09.426Z,25.33
2022-12-09T16:06:37.617Z,22.38
2022-12-09T16:09:13.645Z,25.33
2022-12-09T16:11:45.835Z,24.30
2022-12-09T16:14:13.023Z,24.98
2022-12-09T16:17:00.277Z,25.52
2022-12-09T16:19:41.754Z,25.92
2022-12-09T16:22:11.057Z,25.73
2022-12-09T16:27:39.665Z,25.60
2022-12-09T16:30:13.996Z,27.73
2022-12-09T16:32:44.329Z,25.35
2022-12-09T16:35:10.588Z,27.85
2022-12-09T16:37:42.328Z,28.92
2022-12-09T16:40:32.874Z,26.08
2022-12-09T16:43:17.477Z,25.98
2022-12-09T16:45:46.857Z,26.67
2022-12-09T16:48:13.603Z,27.80
2022-12-09T16:50:46.344Z,26.58
2022-12-09T16:53:18.281Z,28.90
2022-12-09T16:56:02.150Z,28.92
2022-12-09T16:58:38.419Z,27.45
2022-12-09T17:01:05.048Z,28.05
2022-12-09T17:03:38.120Z,28.92
2022-12-09T17:06:05.577Z,30.35
2022-12-09T17:08:32.088Z,29.40
2022-12-09T17:11:01.243Z,30.92
2022-12-09T17:13:28.258Z,29.50
2022-12-09T17:15:58.342Z,30.05
2022-12-09T17:18:26.120Z,28.30
2022-12-09T17:21:04.272Z,29.33
2022-12-09T17:23:36.118Z,30.35
2022-12-09T17:26:15.072Z,30.83
2022-12-09T17:31:10.312Z,25.85
2022-12-09T17:33:36.955Z,29.30
2022-12-09T17:36:03.870Z,29.75
2022-12-09T17:38:30.308Z,28.75
2022-12-09T17:40:56.977Z,26.42
2022-12-09T17:43:23.350Z,29.90
2022-12-09T17:45:49.839Z,29.67
2022-12-09T17:48:16.187Z,32.38
2022-12-09T17:50:42.701Z,29.83
2022-12-09T17:53:09.199Z,30.75
2022-12-09T17:55:38.221Z,30.50
2022-12-09T17:58:04.653Z,30.50
2022-12-09T18:00:32.063Z,28.83
2022-12-09T18:02:58.404Z,29.05
2022-12-09T18:05:24.773Z,28.40
2022-12-09T18:07:51.292Z,27.00
2022-12-09T18:10:17.720Z,27.42
2022-12-09T18:12:44.102Z,27.58
2022-12-09T18:15:10.938Z,27.25
2022-12-09T18:17:37.296Z,28.88
2022-12-09T18:20:04.323Z,29.27
2022-12-09T18:22:30.800Z,27.75
2022-12-09T18:24:57.149Z,31.85
2022-12-09T18:27:23.553Z,31.75
2022-12-09T18:29:49.873Z,30.75
2022-12-09T18:32:16.217Z,30.63
2022-12-09T18:34:43.198Z,29.85
2022-12-09T18:37:09.684Z,29.48
2022-12-09T18:39:36.738Z,30.05
2022-12-09T18:42:03.593Z,31.65
2022-12-09T18:44:29.944Z,31.58
2022-12-09T18:46:56.278Z,30.95
2022-12-09T18:49:24.692Z,32.78
2022-12-09T18:51:52.632Z,33.17
2022-12-09T18:54:24.781Z,34.55
2022-12-09T18:56:51.544Z,30.27
2022-12-09T18:59:19.269Z,29.33
2022-12-09T19:01:46.947Z,28.15
2022-12-09T19:04:16.150Z,27.08
2022-12-09T19:06:45.089Z,29.05
2022-12-09T19:09:23.262Z,29.48
2022-12-09T19:11:51.240Z,30.67
2022-12-09T19:14:19.504Z,28.20
2022-12-09T19:16:46.921Z,29.05
2022-12-09T19:19:16.648Z,29.15
2022-12-09T19:21:44.169Z,29.17
2022-12-09T19:24:17.295Z,29.20
2022-12-09T19:26:44.164Z,27.13
2022-12-09T19:31:42.284Z,28.20
2022-12-09T19:34:13.542Z,28.05
2022-12-09T19:36:40.270Z,28.30
2022-12-09T19:39:08.397Z,27.92
2022-12-09T19:41:35.797Z,28.17
2022-12-09T19:44:04.573Z,29.02
2022-12-09T19:46:31.714Z,28.45
2022-12-09T19:48:58.645Z,29.77
2022-12-09T19:51:26.458Z,28.10
2022-12-09T19:53:54.801Z,27.42
2022-12-09T19:56:21.867Z,28.48
2022-12-09T19:58:49.006Z,27.75
2022-12-09T20:01:22.811Z,29.17
2022-12-09T20:04:25.496Z,27.20
2022-12-09T20:06:52.937Z,26.33
2022-12-09T20:09:24.160Z,31.90
2022-12-09T20:11:51.893Z,33.78
2022-12-09T20:14:18.924Z,30.33
2022-12-09T20:16:45.344Z,29.67
2022-12-09T20:19:11.748Z,28.60
2022-12-09T20:21:39.784Z,28.15
2022-12-09T20:24:06.861Z,27.30
2022-12-09T20:26:36.179Z,27.77
2022-12-09T20:29:07.843Z,28.23
2022-12-09T20:31:36.515Z,26.20
2022-12-09T20:34:06.429Z,28.13
2022-12-09T20:36:34.787Z,28.65
2022-12-09T20:39:05.054Z,28.95
2022-12-09T20:41:31.690Z,28.55
2022-12-09T20:43:59.717Z,30.88
2022-12-09T20:46:31.085Z,28.42
2022-12-09T20:48:58.704Z,29.67
2022-12-09T20:51:33.806Z,31.10
2022-12-09T20:54:00.824Z,28.35
2022-12-09T20:56:28.948Z,31.08
2022-12-09T20:58:56.321Z,28.25
2022-12-09T21:01:25.692Z,28.77
2022-12-09T21:03:53.473Z,27.42
2022-12-09T21:06:21.808Z,28.70
2022-12-09T21:08:48.671Z,27.40
2022-12-09T21:11:21.319Z,27.92
2022-12-09T21:13:50.044Z,29.88
2022-12-09T21:16:22.560Z,27.75
2022-12-09T21:18:50.651Z,27.38
2022-12-09T21:21:18.243Z,26.75
2022-12-09T21:23:44.773Z,28.70
2022-12-09T21:26:14.387Z,26.23
2022-12-09T21:28:42.270Z,27.55
2022-12-09T21:31:17.179Z,27.23
2022-12-09T21:33:45.144Z,30.02
2022-12-09T21:36:20.829Z,29.33
2022-12-09T21:43:42.253Z,22.42
2022-12-09T21:46:11.790Z,24.70
2022-12-09T21:48:39.138Z,27.45
2022-12-09T21:51:05.967Z,26.73
2022-12-09T21:53:33.119Z,27.25
2022-12-09T21:56:15.615Z,26.83
2022-12-09T21:58:43.653Z,28.55
2022-12-09T22:01:15.986Z,28.55
2022-12-09T22:03:43.110Z,28.15
2022-12-09T22:08:38.692Z,29.48
2022-12-09T22:11:14.685Z,30.00
2022-12-09T22:13:41.537Z,29.05
2022-12-09T22:16:13.570Z,27.98
2022-12-09T22:18:40.437Z,30.00
2022-12-09T22:21:26.717Z,27.23
2022-12-09T22:23:55.513Z,28.05
2022-12-09T22:26:22.982Z,29.05
2022-12-09T22:28:50.048Z,30.23
2022-12-09T22:31:22.710Z,27.38
2022-12-09T22:33:50.565Z,31.20
2022-12-09T22:36:18.234Z,28.30
2022-12-09T22:38:45.366Z,30.67
2022-12-09T22:41:14.508Z,29.95
2022-12-09T22:43:41.650Z,28.67
2022-12-09T22:46:19.089Z,27.55
2022-12-09T22:48:45.890Z,26.75
2022-12-09T22:51:15.773Z,26.58
2022-12-09T22:53:42.546Z,27.75
2022-12-09T22:56:10.632Z,27.88
2022-12-09T22:58:37.490Z,26.88
2022-12-09T23:01:12.124Z,26.15
2022-12-09T23:03:39.178Z,23.92
2022-12-09T23:06:06.725Z,27.88
2022-12-09T23:08:33.787Z,27.65
2022-12-09T23:11:06.714Z,24.48
2022-12-09T23:13:40.482Z,22.25
2022-12-09T23:16:09.113Z,21.33
2022-12-09T23:18:36.241Z,23.23
2022-12-09T23:21:04.703Z,22.92
2022-12-09T23:23:31.368Z,24.88
2022-12-09T23:26:06.302Z,22.83
2022-12-09T23:28:37.191Z,28.77
2022-12-09T23:31:05.013Z,20.50
2022-12-09T23:33:33.666Z,18.42
2022-12-09T23:36:08.321Z,19.90
2022-12-09T23:38:35.118Z,21.52
2022-12-09T23:41:02.080Z,22.45
2022-12-09T23:43:32.935Z,21.60
2022-12-09T23:46:04.016Z,21.95
2022-12-09T23:48:30.796Z,22.23
2022-12-09T23:50:57.674Z,21.77
2022-12-09T23:53:24.093Z,20.13
2022-12-09T23:55:51.086Z,20.80
2022-12-09T23:58:17.470Z,19.45
